sensor_id;sensor_type;location;lat;lon;timestamp;P1;durP1;ratioP1;P2;durP2;ratioP2
11263;SDS011;5689;48.798;9.070;2024-01-30T00:00:42;0.63;;;0.63;;
11263;SDS011;5689;48.798;9.070;2024-01-30T00:03:10;0.70;;;0.70;;
11263;SDS011;5689;48.798;9.070;2024-01-30T00:05:38;0.90;;;0.90;;
11263;SDS011;5689;48.798;9.070;2024-01-30T00:08:06;0.70;;;0.70;;
11263;SDS011;5689;48.798;9.070;2024-01-30T00:10:34;0.70;;;0.70;;
11263;SDS011;5689;48.798;9.070;2024-01-30T00:13:03;0.73;;;0.73;;
11263;SDS011;5689;48.798;9.070;2024-01-30T00:15:32;0.70;;;0.70;;
11263;SDS011;5689;48.798;9.070;2024-01-30T00:18:01;0.60;;;0.60;;
11263;SDS011;5689;48.798;9.070;2024-01-30T00:20:29;0.73;;;0.73;;
11263;SDS011;5689;48.798;9.070;2024-01-30T00:22:57;0.70;;;0.70;;
11263;SDS011;5689;48.798;9.070;2024-01-30T00:25:25;0.60;;;0.60;;
11263;SDS011;5689;48.798;9.070;2024-01-30T00:27:53;0.70;;;0.70;;
11263;SDS011;5689;48.798;9.070;2024-01-30T00:30:21;0.60;;;0.60;;
11263;SDS011;5689;48.798;9.070;2024-01-30T00:32:51;0.70;;;0.70;;
11263;SDS011;5689;48.798;9.070;2024-01-30T00:35:21;0.80;;;0.80;;
11263;SDS011;5689;48.798;9.070;2024-01-30T00:37:49;0.70;;;0.70;;
11263;SDS011;5689;48.798;9.070;2024-01-30T00:40:18;0.60;;;0.60;;
11263;SDS011;5689;48.798;9.070;2024-01-30T00:42:47;0.70;;;0.70;;
11263;SDS011;5689;48.798;9.070;2024-01-30T00:45:16;0.80;;;0.80;;
11263;SDS011;5689;48.798;9.070;2024-01-30T00:47:44;0.70;;;0.70;;
11263;SDS011;5689;48.798;9.070;2024-01-30T00:50:14;0.80;;;0.80;;
11263;SDS011;5689;48.798;9.070;2024-01-30T00:52:43;0.67;;;0.67;;
11263;SDS011;5689;48.798;9.070;2024-01-30T00:55:11;0.70;;;0.70;;
11263;SDS011;5689;48.798;9.070;2024-01-30T00:57:40;0.63;;;0.63;;
11263;SDS011;5689;48.798;9.070;2024-01-30T01:00:10;0.80;;;0.80;;
11263;SDS011;5689;48.798;9.070;2024-01-30T01:02:39;0.80;;;0.80;;
11263;SDS011;5689;48.798;9.070;2024-01-30T01:05:07;0.80;;;0.80;;
11263;SDS011;5689;48.798;9.070;2024-01-30T01:07:37;0.80;;;0.80;;
11263;SDS011;5689;48.798;9.070;2024-01-30T01:10:06;0.80;;;0.80;;
11263;SDS011;5689;48.798;9.070;2024-01-30T01:12:35;0.70;;;0.70;;
11263;SDS011;5689;48.798;9.070;2024-01-30T01:15:04;0.70;;;0.70;;
11263;SDS011;5689;48.798;9.070;2024-01-30T01:17:36;0.70;;;0.70;;
11263;SDS011;5689;48.798;9.070;2024-01-30T01:20:05;0.60;;;0.60;;
11263;SDS011;5689;48.798;9.070;2024-01-30T01:22:35;0.80;;;0.80;;
11263;SDS011;5689;48.798;9.070;2024-01-30T01:25:06;0.70;;;0.70;;
11263;SDS011;5689;48.798;9.070;2024-01-30T01:27:36;0.70;;;0.70;;
11263;SDS011;5689;48.798;9.070;2024-01-30T01:30:08;0.70;;;0.70;;
11263;SDS011;5689;48.798;9.070;2024-01-30T01:32:38;0.70;;;0.70;;
11263;SDS011;5689;48.798;9.070;2024-01-30T01:35:11;0.80;;;0.80;;
11263;SDS011;5689;48.798;9.070;2024-01-30T01:37:39;0.60;;;0.60;;
11263;SDS011;5689;48.798;9.070;2024-01-30T01:40:10;0.80;;;0.80;;
11263;SDS011;5689;48.798;9.070;2024-01-30T01:42:38;0.70;;;0.70;;
11263;SDS011;5689;48.798;9.070;2024-01-30T01:45:07;0.70;;;0.70;;
11263;SDS011;5689;48.798;9.070;2024-01-30T01:47:36;0.60;;;0.60;;
11263;SDS011;5689;48.798;9.070;2024-01-30T01:50:04;0.60;;;0.60;;
11263;SDS011;5689;48.798;9.070;2024-01-30T01:52:33;0.80;;;0.80;;
11263;SDS011;5689;48.798;9.070;2024-01-30T01:55:04;0.50;;;0.50;;
11263;SDS011;5689;48.798;9.070;2024-01-30T01:57:38;0.70;;;0.70;;
11263;SDS011;5689;48.798;9.070;2024-01-30T02:00:07;0.77;;;0.77;;
11263;SDS011;5689;48.798;9.070;2024-01-30T02:02:36;0.73;;;0.73;;
11263;SDS011;5689;48.798;9.070;2024-01-30T02:05:07;0.60;;;0.60;;
11263;SDS011;5689;48.798;9.070;2024-01-30T02:07:36;0.60;;;0.60;;
11263;SDS011;5689;48.798;9.070;2024-01-30T02:10:06;0.63;;;0.63;;
11263;SDS011;5689;48.798;9.070;2024-01-30T02:12:36;0.60;;;0.60;;
11263;SDS011;5689;48.798;9.070;2024-01-30T02:15:06;0.63;;;0.63;;
11263;SDS011;5689;48.798;9.070;2024-01-30T02:17:35;0.60;;;0.60;;
11263;SDS011;5689;48.798;9.070;2024-01-30T02:20:04;0.70;;;0.70;;
11263;SDS011;5689;48.798;9.070;2024-01-30T02:22:35;0.60;;;0.60;;
11263;SDS011;5689;48.798;9.070;2024-01-30T02:25:05;0.63;;;0.63;;
11263;SDS011;5689;48.798;9.070;2024-01-30T02:27:34;0.60;;;0.60;;
11263;SDS011;5689;48.798;9.070;2024-01-30T02:30:02;0.60;;;0.60;;
11263;SDS011;5689;48.798;9.070;2024-01-30T02:32:31;0.60;;;0.60;;
11263;SDS011;5689;48.798;9.070;2024-01-30T02:34:59;0.60;;;0.60;;
11263;SDS011;5689;48.798;9.070;2024-01-30T02:37:27;0.70;;;0.70;;
11263;SDS011;5689;48.798;9.070;2024-01-30T02:39:57;0.70;;;0.70;;
11263;SDS011;5689;48.798;9.070;2024-01-30T02:42:25;0.60;;;0.60;;
11263;SDS011;5689;48.798;9.070;2024-01-30T02:44:53;0.70;;;0.70;;
11263;SDS011;5689;48.798;9.070;2024-01-30T02:47:22;0.50;;;0.50;;
11263;SDS011;5689;48.798;9.070;2024-01-30T02:49:50;0.77;;;0.77;;
11263;SDS011;5689;48.798;9.070;2024-01-30T02:52:21;0.70;;;0.70;;
11263;SDS011;5689;48.798;9.070;2024-01-30T02:54:50;0.70;;;0.70;;
11263;SDS011;5689;48.798;9.070;2024-01-30T02:57:19;0.67;;;0.67;;
11263;SDS011;5689;48.798;9.070;2024-01-30T02:59:47;0.67;;;0.67;;
11263;SDS011;5689;48.798;9.070;2024-01-30T03:02:16;0.60;;;0.60;;
11263;SDS011;5689;48.798;9.070;2024-01-30T03:04:44;0.70;;;0.70;;
11263;SDS011;5689;48.798;9.070;2024-01-30T03:07:12;0.70;;;0.70;;
11263;SDS011;5689;48.798;9.070;2024-01-30T03:09:41;0.70;;;0.70;;
11263;SDS011;5689;48.798;9.070;2024-01-30T03:12:11;0.60;;;0.60;;
11263;SDS011;5689;48.798;9.070;2024-01-30T03:14:41;0.70;;;0.70;;
11263;SDS011;5689;48.798;9.070;2024-01-30T03:17:09;0.70;;;0.70;;
11263;SDS011;5689;48.798;9.070;2024-01-30T03:19:37;0.70;;;0.70;;
11263;SDS011;5689;48.798;9.070;2024-01-30T03:22:06;0.70;;;0.70;;
11263;SDS011;5689;48.798;9.070;2024-01-30T03:24:34;0.70;;;0.70;;
11263;SDS011;5689;48.798;9.070;2024-01-30T03:27:03;0.70;;;0.70;;
11263;SDS011;5689;48.798;9.070;2024-01-30T03:29:31;0.80;;;0.80;;
11263;SDS011;5689;48.798;9.070;2024-01-30T03:32:00;0.70;;;0.70;;
11263;SDS011;5689;48.798;9.070;2024-01-30T03:34:30;0.80;;;0.80;;
11263;SDS011;5689;48.798;9.070;2024-01-30T03:36:58;0.80;;;0.80;;
11263;SDS011;5689;48.798;9.070;2024-01-30T03:39:27;0.70;;;0.70;;
11263;SDS011;5689;48.798;9.070;2024-01-30T03:41:55;0.70;;;0.70;;
11263;SDS011;5689;48.798;9.070;2024-01-30T03:44:23;0.70;;;0.70;;
11263;SDS011;5689;48.798;9.070;2024-01-30T03:46:51;0.70;;;0.70;;
11263;SDS011;5689;48.798;9.070;2024-01-30T03:49:21;0.80;;;0.80;;
11263;SDS011;5689;48.798;9.070;2024-01-30T03:51:49;0.70;;;0.70;;
11263;SDS011;5689;48.798;9.070;2024-01-30T03:54:18;0.80;;;0.80;;
11263;SDS011;5689;48.798;9.070;2024-01-30T03:56:46;0.77;;;0.77;;
11263;SDS011;5689;48.798;9.070;2024-01-30T03:59:14;0.70;;;0.70;;
11263;SDS011;5689;48.798;9.070;2024-01-30T04:01:46;0.70;;;0.70;;
11263;SDS011;5689;48.798;9.070;2024-01-30T04:04:14;0.70;;;0.70;;
11263;SDS011;5689;48.798;9.070;2024-01-30T04:06:44;0.70;;;0.70;;
11263;SDS011;5689;48.798;9.070;2024-01-30T04:09:14;0.60;;;0.60;;
11263;SDS011;5689;48.798;9.070;2024-01-30T04:11:42;0.70;;;0.70;;
11263;SDS011;5689;48.798;9.070;2024-01-30T04:14:10;0.70;;;0.70;;
11263;SDS011;5689;48.798;9.070;2024-01-30T04:16:39;0.70;;;0.70;;
11263;SDS011;5689;48.798;9.070;2024-01-30T04:19:08;0.77;;;0.77;;
11263;SDS011;5689;48.798;9.070;2024-01-30T04:21:36;0.80;;;0.80;;
11263;SDS011;5689;48.798;9.070;2024-01-30T04:24:06;0.70;;;0.70;;
11263;SDS011;5689;48.798;9.070;2024-01-30T04:26:34;0.70;;;0.70;;
11263;SDS011;5689;48.798;9.070;2024-01-30T04:29:03;0.70;;;0.70;;
11263;SDS011;5689;48.798;9.070;2024-01-30T04:31:31;0.70;;;0.70;;
11263;SDS011;5689;48.798;9.070;2024-01-30T04:33:59;0.70;;;0.70;;
11263;SDS011;5689;48.798;9.070;2024-01-30T04:36:27;0.70;;;0.70;;
11263;SDS011;5689;48.798;9.070;2024-01-30T04:38:55;0.70;;;0.70;;
11263;SDS011;5689;48.798;9.070;2024-01-30T04:41:25;0.70;;;0.70;;
11263;SDS011;5689;48.798;9.070;2024-01-30T04:43:57;0.70;;;0.70;;
11263;SDS011;5689;48.798;9.070;2024-01-30T04:46:25;0.70;;;0.70;;
11263;SDS011;5689;48.798;9.070;2024-01-30T04:48:54;0.70;;;0.70;;
11263;SDS011;5689;48.798;9.070;2024-01-30T04:51:22;0.70;;;0.70;;
11263;SDS011;5689;48.798;9.070;2024-01-30T04:53:50;0.70;;;0.70;;
11263;SDS011;5689;48.798;9.070;2024-01-30T04:56:19;0.63;;;0.63;;
11263;SDS011;5689;48.798;9.070;2024-01-30T04:58:48;0.70;;;0.70;;
11263;SDS011;5689;48.798;9.070;2024-01-30T05:01:16;0.70;;;0.70;;
11263;SDS011;5689;48.798;9.070;2024-01-30T05:03:45;0.70;;;0.70;;
11263;SDS011;5689;48.798;9.070;2024-01-30T05:06:13;0.80;;;0.80;;
11263;SDS011;5689;48.798;9.070;2024-01-30T05:08:51;0.77;;;0.77;;
11263;SDS011;5689;48.798;9.070;2024-01-30T05:11:20;0.80;;;0.80;;
11263;SDS011;5689;48.798;9.070;2024-01-30T05:13:49;0.80;;;0.80;;
11263;SDS011;5689;48.798;9.070;2024-01-30T05:16:18;0.67;;;0.67;;
11263;SDS011;5689;48.798;9.070;2024-01-30T05:18:46;0.80;;;0.80;;
11263;SDS011;5689;48.798;9.070;2024-01-30T05:21:14;0.90;;;0.90;;
11263;SDS011;5689;48.798;9.070;2024-01-30T05:23:42;0.70;;;0.70;;
11263;SDS011;5689;48.798;9.070;2024-01-30T05:26:10;0.70;;;0.70;;
11263;SDS011;5689;48.798;9.070;2024-01-30T05:28:38;0.80;;;0.80;;
11263;SDS011;5689;48.798;9.070;2024-01-30T05:31:07;0.70;;;0.70;;
11263;SDS011;5689;48.798;9.070;2024-01-30T05:33:36;0.80;;;0.80;;
11263;SDS011;5689;48.798;9.070;2024-01-30T05:36:04;0.90;;;0.90;;
11263;SDS011;5689;48.798;9.070;2024-01-30T05:38:32;0.80;;;0.80;;
11263;SDS011;5689;48.798;9.070;2024-01-30T05:41:00;0.70;;;0.70;;
11263;SDS011;5689;48.798;9.070;2024-01-30T05:43:29;0.70;;;0.70;;
11263;SDS011;5689;48.798;9.070;2024-01-30T05:45:57;0.87;;;0.87;;
11263;SDS011;5689;48.798;9.070;2024-01-30T05:48:27;0.87;;;0.87;;
11263;SDS011;5689;48.798;9.070;2024-01-30T05:50:55;0.80;;;0.80;;
11263;SDS011;5689;48.798;9.070;2024-01-30T05:53:23;0.80;;;0.80;;
11263;SDS011;5689;48.798;9.070;2024-01-30T05:55:51;0.80;;;0.80;;
11263;SDS011;5689;48.798;9.070;2024-01-30T05:58:19;0.80;;;0.80;;
11263;SDS011;5689;48.798;9.070;2024-01-30T06:00:48;0.70;;;0.70;;
11263;SDS011;5689;48.798;9.070;2024-01-30T06:03:16;0.70;;;0.70;;
11263;SDS011;5689;48.798;9.070;2024-01-30T06:05:46;0.73;;;0.73;;
11263;SDS011;5689;48.798;9.070;2024-01-30T06:08:14;0.77;;;0.77;;
11263;SDS011;5689;48.798;9.070;2024-01-30T06:10:42;0.70;;;0.70;;
11263;SDS011;5689;48.798;9.070;2024-01-30T06:13:10;0.70;;;0.70;;
11263;SDS011;5689;48.798;9.070;2024-01-30T06:15:38;0.70;;;0.70;;
11263;SDS011;5689;48.798;9.070;2024-01-30T06:18:07;0.80;;;0.80;;
11263;SDS011;5689;48.798;9.070;2024-01-30T06:20:35;0.80;;;0.80;;
11263;SDS011;5689;48.798;9.070;2024-01-30T06:23:05;0.80;;;0.80;;
11263;SDS011;5689;48.798;9.070;2024-01-30T06:25:33;0.70;;;0.70;;
11263;SDS011;5689;48.798;9.070;2024-01-30T06:28:01;0.70;;;0.70;;
11263;SDS011;5689;48.798;9.070;2024-01-30T06:30:29;0.70;;;0.70;;
11263;SDS011;5689;48.798;9.070;2024-01-30T06:32:58;0.90;;;0.90;;
11263;SDS011;5689;48.798;9.070;2024-01-30T06:35:26;0.80;;;0.80;;
11263;SDS011;5689;48.798;9.070;2024-01-30T06:37:55;0.73;;;0.73;;
11263;SDS011;5689;48.798;9.070;2024-01-30T06:40:24;0.70;;;0.70;;
11263;SDS011;5689;48.798;9.070;2024-01-30T06:42:53;0.70;;;0.70;;
11263;SDS011;5689;48.798;9.070;2024-01-30T06:45:21;0.63;;;0.63;;
11263;SDS011;5689;48.798;9.070;2024-01-30T06:47:49;0.90;;;0.90;;
11263;SDS011;5689;48.798;9.070;2024-01-30T06:50:18;0.80;;;0.80;;
11263;SDS011;5689;48.798;9.070;2024-01-30T06:52:46;0.80;;;0.80;;
11263;SDS011;5689;48.798;9.070;2024-01-30T06:55:14;0.90;;;0.90;;
11263;SDS011;5689;48.798;9.070;2024-01-30T06:57:49;0.80;;;0.80;;
11263;SDS011;5689;48.798;9.070;2024-01-30T07:00:17;0.70;;;0.70;;
11263;SDS011;5689;48.798;9.070;2024-01-30T07:02:46;0.80;;;0.80;;
11263;SDS011;5689;48.798;9.070;2024-01-30T07:05:14;0.80;;;0.80;;
11263;SDS011;5689;48.798;9.070;2024-01-30T07:07:43;0.80;;;0.80;;
11263;SDS011;5689;48.798;9.070;2024-01-30T07:10:12;0.70;;;0.70;;
11263;SDS011;5689;48.798;9.070;2024-01-30T07:12:40;0.80;;;0.80;;
11263;SDS011;5689;48.798;9.070;2024-01-30T07:15:10;0.80;;;0.80;;
11263;SDS011;5689;48.798;9.070;2024-01-30T07:17:41;0.70;;;0.70;;
11263;SDS011;5689;48.798;9.070;2024-01-30T07:20:09;0.60;;;0.60;;
11263;SDS011;5689;48.798;9.070;2024-01-30T07:22:40;0.80;;;0.80;;
11263;SDS011;5689;48.798;9.070;2024-01-30T07:25:08;0.70;;;0.70;;
11263;SDS011;5689;48.798;9.070;2024-01-30T07:27:36;0.80;;;0.80;;
11263;SDS011;5689;48.798;9.070;2024-01-30T07:30:05;0.80;;;0.80;;
11263;SDS011;5689;48.798;9.070;2024-01-30T07:32:35;0.70;;;0.70;;
11263;SDS011;5689;48.798;9.070;2024-01-30T07:35:04;0.70;;;0.70;;
11263;SDS011;5689;48.798;9.070;2024-01-30T07:37:32;0.60;;;0.60;;
11263;SDS011;5689;48.798;9.070;2024-01-30T07:40:01;0.63;;;0.63;;
11263;SDS011;5689;48.798;9.070;2024-01-30T07:42:29;0.70;;;0.70;;
11263;SDS011;5689;48.798;9.070;2024-01-30T07:44:58;0.70;;;0.70;;
11263;SDS011;5689;48.798;9.070;2024-01-30T07:47:26;0.60;;;0.60;;
11263;SDS011;5689;48.798;9.070;2024-01-30T07:49:55;0.70;;;0.70;;
11263;SDS011;5689;48.798;9.070;2024-01-30T07:52:25;0.70;;;0.70;;
11263;SDS011;5689;48.798;9.070;2024-01-30T07:54:54;0.57;;;0.57;;
11263;SDS011;5689;48.798;9.070;2024-01-30T07:57:23;0.60;;;0.60;;
11263;SDS011;5689;48.798;9.070;2024-01-30T07:59:51;0.70;;;0.70;;
11263;SDS011;5689;48.798;9.070;2024-01-30T08:02:19;0.70;;;0.70;;
11263;SDS011;5689;48.798;9.070;2024-01-30T08:04:48;0.60;;;0.60;;
11263;SDS011;5689;48.798;9.070;2024-01-30T08:07:18;0.70;;;0.70;;
11263;SDS011;5689;48.798;9.070;2024-01-30T08:09:48;0.60;;;0.60;;
11263;SDS011;5689;48.798;9.070;2024-01-30T08:12:16;0.70;;;0.70;;
11263;SDS011;5689;48.798;9.070;2024-01-30T08:14:44;0.60;;;0.60;;
11263;SDS011;5689;48.798;9.070;2024-01-30T08:17:13;0.63;;;0.63;;
11263;SDS011;5689;48.798;9.070;2024-01-30T08:19:42;0.50;;;0.50;;
11263;SDS011;5689;48.798;9.070;2024-01-30T08:22:11;0.70;;;0.70;;
11263;SDS011;5689;48.798;9.070;2024-01-30T08:24:42;0.60;;;0.60;;
11263;SDS011;5689;48.798;9.070;2024-01-30T08:27:10;0.50;;;0.50;;
11263;SDS011;5689;48.798;9.070;2024-01-30T08:29:38;0.60;;;0.60;;
11263;SDS011;5689;48.798;9.070;2024-01-30T08:32:07;0.60;;;0.60;;
11263;SDS011;5689;48.798;9.070;2024-01-30T08:34:35;0.50;;;0.50;;
11263;SDS011;5689;48.798;9.070;2024-01-30T08:37:03;0.50;;;0.50;;
11263;SDS011;5689;48.798;9.070;2024-01-30T08:39:31;0.50;;;0.50;;
11263;SDS011;5689;48.798;9.070;2024-01-30T08:42:01;0.60;;;0.60;;
11263;SDS011;5689;48.798;9.070;2024-01-30T08:44:30;0.50;;;0.50;;
11263;SDS011;5689;48.798;9.070;2024-01-30T08:46:58;0.50;;;0.50;;
11263;SDS011;5689;48.798;9.070;2024-01-30T08:49:26;0.47;;;0.47;;
11263;SDS011;5689;48.798;9.070;2024-01-30T08:51:55;0.50;;;0.50;;
11263;SDS011;5689;48.798;9.070;2024-01-30T08:54:23;0.53;;;0.53;;
11263;SDS011;5689;48.798;9.070;2024-01-30T08:56:51;0.50;;;0.50;;
11263;SDS011;5689;48.798;9.070;2024-01-30T08:59:23;0.47;;;0.47;;
11263;SDS011;5689;48.798;9.070;2024-01-30T09:01:51;0.40;;;0.40;;
11263;SDS011;5689;48.798;9.070;2024-01-30T09:04:25;0.40;;;0.40;;
11263;SDS011;5689;48.798;9.070;2024-01-30T09:06:53;0.30;;;0.30;;
11263;SDS011;5689;48.798;9.070;2024-01-30T09:09:22;0.40;;;0.40;;
11263;SDS011;5689;48.798;9.070;2024-01-30T09:11:50;0.40;;;0.40;;
11263;SDS011;5689;48.798;9.070;2024-01-30T09:14:18;0.35;;;0.35;;
11263;SDS011;5689;48.798;9.070;2024-01-30T09:16:48;0.30;;;0.30;;
11263;SDS011;5689;48.798;9.070;2024-01-30T09:19:16;0.30;;;0.30;;
11263;SDS011;5689;48.798;9.070;2024-01-30T09:21:44;0.30;;;0.30;;
11263;SDS011;5689;48.798;9.070;2024-01-30T09:24:12;0.20;;;0.20;;
11263;SDS011;5689;48.798;9.070;2024-01-30T09:26:41;0.20;;;0.20;;
11263;SDS011;5689;48.798;9.070;2024-01-30T09:29:09;0.10;;;0.10;;
11263;SDS011;5689;48.798;9.070;2024-01-30T09:31:37;0.10;;;0.10;;
11263;SDS011;5689;48.798;9.070;2024-01-30T09:34:07;0.10;;;0.10;;
11263;SDS011;5689;48.798;9.070;2024-01-30T09:36:35;0.10;;;0.10;;
11263;SDS011;5689;48.798;9.070;2024-01-30T09:39:03;0.10;;;0.10;;
11263;SDS011;5689;48.798;9.070;2024-01-30T09:41:32;0.17;;;0.17;;
11263;SDS011;5689;48.798;9.070;2024-01-30T09:44:05;0.17;;;0.17;;
11263;SDS011;5689;48.798;9.070;2024-01-30T09:46:36;0.10;;;0.10;;
11263;SDS011;5689;48.798;9.070;2024-01-30T09:49:05;0.10;;;0.10;;
11263;SDS011;5689;48.798;9.070;2024-01-30T09:51:36;0.20;;;0.20;;
11263;SDS011;5689;48.798;9.070;2024-01-30T09:54:05;0.10;;;0.10;;
11263;SDS011;5689;48.798;9.070;2024-01-30T09:56:37;0.20;;;0.20;;
11263;SDS011;5689;48.798;9.070;2024-01-30T09:59:06;0.20;;;0.20;;
11263;SDS011;5689;48.798;9.070;2024-01-30T10:01:34;0.10;;;0.10;;
11263;SDS011;5689;48.798;9.070;2024-01-30T10:04:04;0.20;;;0.20;;
11263;SDS011;5689;48.798;9.070;2024-01-30T10:06:34;0.20;;;0.20;;
11263;SDS011;5689;48.798;9.070;2024-01-30T10:09:04;0.10;;;0.10;;
11263;SDS011;5689;48.798;9.070;2024-01-30T10:11:33;0.20;;;0.20;;
11263;SDS011;5689;48.798;9.070;2024-01-30T10:14:01;0.20;;;0.20;;
11263;SDS011;5689;48.798;9.070;2024-01-30T10:16:29;0.20;;;0.20;;
11263;SDS011;5689;48.798;9.070;2024-01-30T10:18:58;0.20;;;0.20;;
11263;SDS011;5689;48.798;9.070;2024-01-30T10:21:26;0.10;;;0.10;;
11263;SDS011;5689;48.798;9.070;2024-01-30T10:23:56;0.20;;;0.20;;
11263;SDS011;5689;48.798;9.070;2024-01-30T10:26:24;0.20;;;0.20;;
11263;SDS011;5689;48.798;9.070;2024-01-30T10:28:52;0.20;;;0.20;;
11263;SDS011;5689;48.798;9.070;2024-01-30T10:31:21;0.20;;;0.20;;
11263;SDS011;5689;48.798;9.070;2024-01-30T10:33:49;0.20;;;0.20;;
11263;SDS011;5689;48.798;9.070;2024-01-30T10:36:18;0.20;;;0.20;;
11263;SDS011;5689;48.798;9.070;2024-01-30T10:38:49;0.20;;;0.20;;
11263;SDS011;5689;48.798;9.070;2024-01-30T10:41:22;0.20;;;0.20;;
11263;SDS011;5689;48.798;9.070;2024-01-30T10:43:56;0.20;;;0.20;;
11263;SDS011;5689;48.798;9.070;2024-01-30T10:46:30;0.20;;;0.20;;
11263;SDS011;5689;48.798;9.070;2024-01-30T10:49:00;0.20;;;0.20;;
11263;SDS011;5689;48.798;9.070;2024-01-30T10:51:29;0.13;;;0.13;;
11263;SDS011;5689;48.798;9.070;2024-01-30T10:53:58;0.20;;;0.20;;
11263;SDS011;5689;48.798;9.070;2024-01-30T10:56:29;0.20;;;0.20;;
11263;SDS011;5689;48.798;9.070;2024-01-30T10:58:59;0.20;;;0.20;;
11263;SDS011;5689;48.798;9.070;2024-01-30T11:01:28;0.20;;;0.20;;
11263;SDS011;5689;48.798;9.070;2024-01-30T11:03:56;0.20;;;0.20;;
11263;SDS011;5689;48.798;9.070;2024-01-30T11:06:25;0.20;;;0.20;;
11263;SDS011;5689;48.798;9.070;2024-01-30T11:09:00;0.10;;;0.10;;
11263;SDS011;5689;48.798;9.070;2024-01-30T11:11:31;0.10;;;0.10;;
11263;SDS011;5689;48.798;9.070;2024-01-30T11:14:00;0.20;;;0.20;;
11263;SDS011;5689;48.798;9.070;2024-01-30T11:16:30;0.10;;;0.10;;
11263;SDS011;5689;48.798;9.070;2024-01-30T11:19:00;0.20;;;0.20;;
11263;SDS011;5689;48.798;9.070;2024-01-30T11:21:29;0.13;;;0.13;;
11263;SDS011;5689;48.798;9.070;2024-01-30T11:23:57;0.10;;;0.10;;
11263;SDS011;5689;48.798;9.070;2024-01-30T11:26:27;0.10;;;0.10;;
11263;SDS011;5689;48.798;9.070;2024-01-30T11:28:58;0.17;;;0.17;;
11263;SDS011;5689;48.798;9.070;2024-01-30T11:31:26;0.10;;;0.10;;
11263;SDS011;5689;48.798;9.070;2024-01-30T11:33:56;0.10;;;0.10;;
11263;SDS011;5689;48.798;9.070;2024-01-30T11:36:25;0.10;;;0.10;;
11263;SDS011;5689;48.798;9.070;2024-01-30T11:38:54;0.10;;;0.10;;
11263;SDS011;5689;48.798;9.070;2024-01-30T11:41:22;0.10;;;0.10;;
11263;SDS011;5689;48.798;9.070;2024-01-30T11:43:52;0.10;;;0.10;;
11263;SDS011;5689;48.798;9.070;2024-01-30T11:46:22;0.10;;;0.10;;
11263;SDS011;5689;48.798;9.070;2024-01-30T11:48:52;0.10;;;0.10;;
11263;SDS011;5689;48.798;9.070;2024-01-30T11:51:21;0.10;;;0.10;;
11263;SDS011;5689;48.798;9.070;2024-01-30T11:53:49;0.10;;;0.10;;
11263;SDS011;5689;48.798;9.070;2024-01-30T11:56:18;0.10;;;0.10;;
11263;SDS011;5689;48.798;9.070;2024-01-30T11:58:46;0.10;;;0.10;;
11263;SDS011;5689;48.798;9.070;2024-01-30T12:01:16;0.10;;;0.10;;
11263;SDS011;5689;48.798;9.070;2024-01-30T12:03:50;0.20;;;0.20;;
11263;SDS011;5689;48.798;9.070;2024-01-30T12:06:18;0.20;;;0.20;;
11263;SDS011;5689;48.798;9.070;2024-01-30T12:08:55;0.10;;;0.10;;
11263;SDS011;5689;48.798;9.070;2024-01-30T12:11:27;0.10;;;0.10;;
11263;SDS011;5689;48.798;9.070;2024-01-30T12:13:56;0.10;;;0.10;;
11263;SDS011;5689;48.798;9.070;2024-01-30T12:16:25;0.20;;;0.20;;
11263;SDS011;5689;48.798;9.070;2024-01-30T12:19:00;0.10;;;0.10;;
11263;SDS011;5689;48.798;9.070;2024-01-30T12:21:29;0.20;;;0.20;;
11263;SDS011;5689;48.798;9.070;2024-01-30T12:23:57;0.10;;;0.10;;
11263;SDS011;5689;48.798;9.070;2024-01-30T12:26:27;0.10;;;0.10;;
11263;SDS011;5689;48.798;9.070;2024-01-30T12:28:55;0.10;;;0.10;;
11263;SDS011;5689;48.798;9.070;2024-01-30T12:31:27;0.10;;;0.10;;
11263;SDS011;5689;48.798;9.070;2024-01-30T12:33:56;0.10;;;0.10;;
11263;SDS011;5689;48.798;9.070;2024-01-30T12:36:25;0.10;;;0.10;;
11263;SDS011;5689;48.798;9.070;2024-01-30T12:38:54;0.10;;;0.10;;
11263;SDS011;5689;48.798;9.070;2024-01-30T12:41:22;0.10;;;0.10;;
11263;SDS011;5689;48.798;9.070;2024-01-30T12:43:54;0.10;;;0.10;;
11263;SDS011;5689;48.798;9.070;2024-01-30T12:46:25;0.10;;;0.10;;
11263;SDS011;5689;48.798;9.070;2024-01-30T12:48:55;0.10;;;0.10;;
11263;SDS011;5689;48.798;9.070;2024-01-30T12:51:23;0.10;;;0.10;;
11263;SDS011;5689;48.798;9.070;2024-01-30T12:53:53;0.00;;;0.00;;
11263;SDS011;5689;48.798;9.070;2024-01-30T12:56:22;0.10;;;0.10;;
11263;SDS011;5689;48.798;9.070;2024-01-30T12:58:50;0.00;;;0.00;;
11263;SDS011;5689;48.798;9.070;2024-01-30T13:01:19;0.00;;;0.00;;
11263;SDS011;5689;48.798;9.070;2024-01-30T13:03:47;0.00;;;0.00;;
11263;SDS011;5689;48.798;9.070;2024-01-30T13:06:15;0.03;;;0.03;;
11263;SDS011;5689;48.798;9.070;2024-01-30T13:08:45;0.00;;;0.00;;
11263;SDS011;5689;48.798;9.070;2024-01-30T13:11:13;0.00;;;0.00;;
11263;SDS011;5689;48.798;9.070;2024-01-30T13:13:43;0.00;;;0.00;;
11263;SDS011;5689;48.798;9.070;2024-01-30T13:16:11;0.95;;;0.10;;
11263;SDS011;5689;48.798;9.070;2024-01-30T13:18:39;0.00;;;0.00;;
11263;SDS011;5689;48.798;9.070;2024-01-30T13:21:08;0.00;;;0.00;;
11263;SDS011;5689;48.798;9.070;2024-01-30T13:23:36;0.00;;;0.00;;
11263;SDS011;5689;48.798;9.070;2024-01-30T13:26:05;0.00;;;0.00;;
11263;SDS011;5689;48.798;9.070;2024-01-30T13:28:33;0.00;;;0.00;;
11263;SDS011;5689;48.798;9.070;2024-01-30T13:31:02;0.10;;;0.10;;
11263;SDS011;5689;48.798;9.070;2024-01-30T13:33:33;0.08;;;0.08;;
11263;SDS011;5689;48.798;9.070;2024-01-30T13:36:04;0.00;;;0.00;;
11263;SDS011;5689;48.798;9.070;2024-01-30T13:38:32;0.00;;;0.00;;
11263;SDS011;5689;48.798;9.070;2024-01-30T13:41:01;0.10;;;0.10;;
11263;SDS011;5689;48.798;9.070;2024-01-30T13:43:30;0.00;;;0.00;;
11263;SDS011;5689;48.798;9.070;2024-01-30T13:45:58;0.10;;;0.10;;
11263;SDS011;5689;48.798;9.070;2024-01-30T13:48:27;0.10;;;0.10;;
11263;SDS011;5689;48.798;9.070;2024-01-30T13:50:56;0.00;;;0.00;;
11263;SDS011;5689;48.798;9.070;2024-01-30T13:53:24;0.10;;;0.10;;
11263;SDS011;5689;48.798;9.070;2024-01-30T13:55:52;0.10;;;0.10;;
11263;SDS011;5689;48.798;9.070;2024-01-30T13:58:21;0.10;;;0.10;;
11263;SDS011;5689;48.798;9.070;2024-01-30T14:00:51;0.10;;;0.10;;
11263;SDS011;5689;48.798;9.070;2024-01-30T14:03:19;0.10;;;0.10;;
11263;SDS011;5689;48.798;9.070;2024-01-30T14:05:48;0.10;;;0.10;;
11263;SDS011;5689;48.798;9.070;2024-01-30T14:08:16;0.00;;;0.00;;
11263;SDS011;5689;48.798;9.070;2024-01-30T14:10:44;0.10;;;0.10;;
11263;SDS011;5689;48.798;9.070;2024-01-30T14:13:12;0.10;;;0.10;;
11263;SDS011;5689;48.798;9.070;2024-01-30T14:15:40;0.00;;;0.00;;
11263;SDS011;5689;48.798;9.070;2024-01-30T14:18:10;0.10;;;0.10;;
11263;SDS011;5689;48.798;9.070;2024-01-30T14:20:38;0.10;;;0.10;;
11263;SDS011;5689;48.798;9.070;2024-01-30T14:23:07;0.10;;;0.10;;
11263;SDS011;5689;48.798;9.070;2024-01-30T14:25:35;0.10;;;0.10;;
11263;SDS011;5689;48.798;9.070;2024-01-30T14:28:03;0.00;;;0.00;;
11263;SDS011;5689;48.798;9.070;2024-01-30T14:30:33;0.10;;;0.10;;
11263;SDS011;5689;48.798;9.070;2024-01-30T14:33:02;0.10;;;0.10;;
11263;SDS011;5689;48.798;9.070;2024-01-30T14:35:32;0.10;;;0.10;;
11263;SDS011;5689;48.798;9.070;2024-01-30T14:38:00;0.10;;;0.10;;
11263;SDS011;5689;48.798;9.070;2024-01-30T14:40:31;0.10;;;0.10;;
11263;SDS011;5689;48.798;9.070;2024-01-30T14:42:59;0.20;;;0.20;;
11263;SDS011;5689;48.798;9.070;2024-01-30T14:45:28;0.20;;;0.20;;
11263;SDS011;5689;48.798;9.070;2024-01-30T14:47:58;0.10;;;0.10;;
11263;SDS011;5689;48.798;9.070;2024-01-30T14:50:27;0.10;;;0.10;;
11263;SDS011;5689;48.798;9.070;2024-01-30T14:52:56;0.10;;;0.10;;
11263;SDS011;5689;48.798;9.070;2024-01-30T14:55:25;0.10;;;0.10;;
11263;SDS011;5689;48.798;9.070;2024-01-30T14:57:53;0.10;;;0.10;;
11263;SDS011;5689;48.798;9.070;2024-01-30T15:00:21;0.10;;;0.10;;
11263;SDS011;5689;48.798;9.070;2024-01-30T15:02:49;0.10;;;0.10;;
11263;SDS011;5689;48.798;9.070;2024-01-30T15:05:17;0.20;;;0.20;;
11263;SDS011;5689;48.798;9.070;2024-01-30T15:07:46;0.20;;;0.20;;
11263;SDS011;5689;48.798;9.070;2024-01-30T15:10:16;0.20;;;0.20;;